createdAt,value
2023-05-19T00:01:03.181Z,7.65
2023-05-19T00:03:30.551Z,6.20
2023-05-19T00:05:58.781Z,6.35
2023-05-19T00:08:26.653Z,7.63
2023-05-19T00:10:53.831Z,6.65
2023-05-19T00:13:21.918Z,6.80
2023-05-19T00:15:50.242Z,5.38
2023-05-19T00:18:17.388Z,5.72
2023-05-19T00:20:44.343Z,7.23
2023-05-19T00:23:11.663Z,6.90
2023-05-19T00:25:38.598Z,7.40
2023-05-19T00:28:05.490Z,8.82
2023-05-19T00:30:32.846Z,6.80
2023-05-19T00:33:00.408Z,5.80
2023-05-19T00:35:27.472Z,6.50
2023-05-19T00:37:59.114Z,9.15
2023-05-19T00:40:28.214Z,8.50
2023-05-19T00:42:57.194Z,7.35
2023-05-19T00:45:25.396Z,7.70
2023-05-19T00:47:53.198Z,5.93
2023-05-19T00:50:20.117Z,9.02
2023-05-19T00:52:51.309Z,6.22
2023-05-19T00:55:43.369Z,7.32
2023-05-19T00:58:14.143Z,6.10
2023-05-19T01:00:41.218Z,7.57
2023-05-19T01:03:09.162Z,10.02
2023-05-19T01:05:37.235Z,8.50
2023-05-19T01:08:05.826Z,8.43
2023-05-19T01:10:33.162Z,6.60
2023-05-19T01:13:02.188Z,7.85
2023-05-19T01:15:29.564Z,11.52
2023-05-19T01:18:12.335Z,9.75
2023-05-19T01:20:40.477Z,7.05
2023-05-19T01:23:46.088Z,8.90
2023-05-19T01:26:48.007Z,7.93
2023-05-19T01:29:26.203Z,9.07
2023-05-19T01:31:55.637Z,8.20
2023-05-19T01:34:25.540Z,9.88
2023-05-19T01:36:56.043Z,8.27
2023-05-19T01:39:25.225Z,7.82
2023-05-19T01:41:54.242Z,8.73
2023-05-19T01:44:23.173Z,7.45
2023-05-19T01:46:51.013Z,8.65
2023-05-19T01:49:17.913Z,7.17
2023-05-19T01:51:45.956Z,10.23
2023-05-19T01:54:12.741Z,9.63
2023-05-19T01:56:53.244Z,9.00
2023-05-19T02:00:09.329Z,7.93
2023-05-19T02:03:08.317Z,8.53
2023-05-19T02:05:44.995Z,9.20
2023-05-19T02:08:21.230Z,9.48
2023-05-19T02:11:00.815Z,8.25
2023-05-19T02:13:34.226Z,12.85
2023-05-19T02:16:05.386Z,9.50
2023-05-19T02:18:35.358Z,10.23
2023-05-19T02:21:02.894Z,9.73
2023-05-19T02:23:30.979Z,10.93
2023-05-19T02:26:01.274Z,12.80
2023-05-19T02:28:28.247Z,9.50
2023-05-19T02:30:55.670Z,9.18
2023-05-19T02:33:22.667Z,10.73
2023-05-19T02:35:49.657Z,9.93
2023-05-19T02:38:16.471Z,12.77
2023-05-19T02:40:44.294Z,9.67
2023-05-19T02:43:11.314Z,11.38
2023-05-19T02:45:38.221Z,11.00
2023-05-19T02:48:06.309Z,11.30
2023-05-19T02:50:33.439Z,10.80
2023-05-19T02:53:00.454Z,8.97
2023-05-19T02:55:27.536Z,11.70
2023-05-19T02:57:54.530Z,14.50
2023-05-19T03:03:39.370Z,15.25
2023-05-19T03:06:06.890Z,11.90
2023-05-19T03:08:33.683Z,12.23
2023-05-19T03:11:01.307Z,12.88
2023-05-19T03:13:31.961Z,14.23
2023-05-19T03:16:00.799Z,10.85
2023-05-19T03:18:27.824Z,12.13
2023-05-19T03:20:54.888Z,11.55
2023-05-19T03:23:22.895Z,12.63
2023-05-19T03:25:50.209Z,12.35
2023-05-19T03:28:17.166Z,12.57
2023-05-19T03:30:46.356Z,13.47
2023-05-19T03:33:18.961Z,13.80
2023-05-19T03:35:47.304Z,13.07
2023-05-19T03:38:15.366Z,13.20
2023-05-19T03:40:51.229Z,12.02
2023-05-19T03:43:18.122Z,12.60
2023-05-19T03:45:52.372Z,12.45
2023-05-19T03:48:48.476Z,12.73
2023-05-19T03:51:33.993Z,10.65
2023-05-19T03:54:11.554Z,11.60
2023-05-19T03:56:44.240Z,10.83
2023-05-19T03:59:11.102Z,11.77
2023-05-19T04:01:41.333Z,13.88
2023-05-19T04:04:33.226Z,10.20
2023-05-19T04:07:00.815Z,11.88
2023-05-19T04:09:27.626Z,13.00
2023-05-19T04:11:56.287Z,12.05
2023-05-19T04:14:24.373Z,11.90
2023-05-19T04:16:51.211Z,12.15
2023-05-19T04:19:19.071Z,11.95
2023-05-19T04:21:46.242Z,12.00
2023-05-19T04:24:13.108Z,14.70
2023-05-19T04:26:40.878Z,12.55
2023-05-19T04:29:07.821Z,10.93
2023-05-19T04:31:35.408Z,10.25
2023-05-19T04:34:04.622Z,10.50
2023-05-19T04:36:35.334Z,9.18
2023-05-19T04:39:04.456Z,9.27
2023-05-19T04:41:31.371Z,11.65
2023-05-19T04:43:59.921Z,9.73
2023-05-19T04:46:27.362Z,9.30
2023-05-19T04:48:55.519Z,10.70
2023-05-19T04:51:25.216Z,7.85
2023-05-19T04:53:52.051Z,8.63
2023-05-19T04:56:45.308Z,8.32
2023-05-19T04:59:12.916Z,8.47
2023-05-19T05:01:43.440Z,11.70
2023-05-19T05:04:13.405Z,8.30
2023-05-19T05:06:41.194Z,6.30
2023-05-19T05:09:09.304Z,7.32
2023-05-19T05:11:37.014Z,6.60
2023-05-19T05:14:04.545Z,8.43
2023-05-19T05:16:37.391Z,7.13
2023-05-19T05:19:05.848Z,7.85
2023-05-19T05:21:33.847Z,6.50
2023-05-19T05:24:02.355Z,7.03
2023-05-19T05:26:34.187Z,6.53
2023-05-19T05:29:02.728Z,8.05
2023-05-19T05:31:30.150Z,6.20
2023-05-19T05:33:58.011Z,7.55
2023-05-19T05:36:28.544Z,5.50
2023-05-19T05:41:47.373Z,6.50
2023-05-19T05:44:14.393Z,5.32
2023-05-19T05:46:44.230Z,6.95
2023-05-19T05:49:13.361Z,6.00
2023-05-19T05:51:54.290Z,5.80
2023-05-19T05:54:38.451Z,4.97
2023-05-19T05:57:10.264Z,5.78
2023-05-19T05:59:38.447Z,5.10
2023-05-19T06:02:05.628Z,5.53
2023-05-19T06:04:33.485Z,6.00
2023-05-19T06:07:01.319Z,7.10
2023-05-19T06:09:32.094Z,6.88
2023-05-19T06:12:25.295Z,6.35
2023-05-19T06:14:54.437Z,5.90
2023-05-19T06:17:40.260Z,4.50
2023-05-19T06:20:08.071Z,6.40
2023-05-19T06:22:35.529Z,6.65
2023-05-19T06:25:03.326Z,5.60
2023-05-19T06:27:31.185Z,7.73
2023-05-19T06:29:59.531Z,5.30
2023-05-19T06:32:28.263Z,5.53
2023-05-19T06:34:58.058Z,6.07
2023-05-19T06:37:25.787Z,4.85
2023-05-19T06:39:55.120Z,4.43
2023-05-19T06:42:22.800Z,6.00
2023-05-19T06:45:08.158Z,5.05
2023-05-19T06:47:36.294Z,5.18
2023-05-19T06:50:03.694Z,5.43
2023-05-19T06:52:34.271Z,6.33
2023-05-19T06:55:02.751Z,6.07
2023-05-19T06:57:32.311Z,5.82
2023-05-19T07:00:01.604Z,4.28
2023-05-19T07:02:28.734Z,4.85
2023-05-19T07:04:55.850Z,4.67
2023-05-19T07:07:25.212Z,4.57
2023-05-19T07:09:53.120Z,4.90
2023-05-19T07:12:23.249Z,5.88
2023-05-19T07:14:53.113Z,4.85
2023-05-19T07:17:20.985Z,6.37
2023-05-19T07:19:48.907Z,5.03
2023-05-19T07:22:16.245Z,5.43
2023-05-19T07:24:44.412Z,4.80
2023-05-19T07:27:13.225Z,6.53
2023-05-19T07:29:43.728Z,5.70
2023-05-19T07:32:11.365Z,8.73
2023-05-19T07:34:40.616Z,5.43
2023-05-19T07:37:07.707Z,9.32
2023-05-19T07:39:36.089Z,5.70
2023-05-19T07:42:03.911Z,5.60
2023-05-19T07:44:32.268Z,5.93
2023-05-19T07:46:59.056Z,5.55
2023-05-19T07:49:55.436Z,6.95
2023-05-19T07:52:25.756Z,4.53
2023-05-19T07:54:52.526Z,5.87
2023-05-19T07:57:19.528Z,5.95
2023-05-19T07:59:46.293Z,5.95
2023-05-19T08:02:14.493Z,6.05
2023-05-19T08:05:10.317Z,7.07
2023-05-19T08:07:37.474Z,6.50
2023-05-19T08:10:04.635Z,4.93
2023-05-19T08:12:31.817Z,6.57
2023-05-19T08:15:01.009Z,6.40
2023-05-19T08:17:28.410Z,10.25
2023-05-19T08:20:20.374Z,7.73
2023-05-19T08:22:49.384Z,7.00
2023-05-19T08:25:16.257Z,6.45
2023-05-19T08:27:43.181Z,8.07
2023-05-19T08:30:11.370Z,7.18
2023-05-19T08:32:38.733Z,6.03
2023-05-19T08:35:05.860Z,8.45
2023-05-19T08:37:36.050Z,5.10
2023-05-19T08:40:03.114Z,7.65
2023-05-19T08:42:30.020Z,6.88
2023-05-19T08:44:56.845Z,6.50
2023-05-19T08:47:23.773Z,5.75
2023-05-19T08:49:54.346Z,6.57
2023-05-19T08:52:39.648Z,7.22
2023-05-19T08:58:11.845Z,6.63
2023-05-19T09:00:39.073Z,6.05
2023-05-19T09:03:18.170Z,9.07
2023-05-19T09:05:52.278Z,7.57
2023-05-19T09:08:19.250Z,7.18
2023-05-19T09:10:46.717Z,5.00
2023-05-19T09:13:15.257Z,4.93
2023-05-19T09:15:42.513Z,5.40
2023-05-19T09:18:13.319Z,6.00
2023-05-19T09:20:42.099Z,5.50
2023-05-19T09:23:17.741Z,7.13
2023-05-19T09:25:52.239Z,5.78
2023-05-19T09:28:29.269Z,5.80
2023-05-19T09:31:08.683Z,5.40
2023-05-19T09:33:37.200Z,5.07
2023-05-19T09:36:04.827Z,5.90
2023-05-19T09:38:33.300Z,4.38
2023-05-19T09:41:01.120Z,4.93
2023-05-19T09:43:34.322Z,7.25
2023-05-19T09:46:07.540Z,5.10
2023-05-19T09:48:35.722Z,4.47
2023-05-19T09:51:04.020Z,5.78
2023-05-19T09:53:31.951Z,5.35
2023-05-19T09:55:58.990Z,6.53
2023-05-19T09:58:26.682Z,6.63
2023-05-19T10:00:54.077Z,7.00
2023-05-19T10:03:25.715Z,5.80
2023-05-19T10:05:53.643Z,5.88
2023-05-19T10:08:20.776Z,4.53
2023-05-19T10:10:48.509Z,5.30
2023-05-19T10:13:16.352Z,6.60
2023-05-19T10:15:57.288Z,6.32
2023-05-19T10:18:27.333Z,6.32
2023-05-19T10:20:54.533Z,7.82
2023-05-19T10:23:21.395Z,7.80
2023-05-19T10:25:49.711Z,7.10
2023-05-19T10:28:18.560Z,6.75
2023-05-19T10:30:53.211Z,5.88
2023-05-19T10:33:23.865Z,5.50
2023-05-19T10:36:06.040Z,6.75
2023-05-19T10:38:42.192Z,5.95
2023-05-19T10:41:31.777Z,6.60
2023-05-19T10:44:33.652Z,5.93
2023-05-19T10:47:06.984Z,5.00
2023-05-19T10:49:36.873Z,4.57
2023-05-19T10:52:22.371Z,6.22
2023-05-19T10:54:49.697Z,4.40
2023-05-19T10:57:20.833Z,5.80
2023-05-19T10:59:51.352Z,4.55
2023-05-19T11:02:43.828Z,4.45
2023-05-19T11:05:16.401Z,4.55
2023-05-19T11:07:56.442Z,4.30
2023-05-19T11:10:25.041Z,5.10
2023-05-19T11:12:52.421Z,4.75
2023-05-19T11:15:26.489Z,4.03
2023-05-19T11:17:54.634Z,3.77
2023-05-19T11:20:25.948Z,4.35
2023-05-19T11:23:05.616Z,4.40
2023-05-19T11:25:49.946Z,3.30
2023-05-19T11:28:42.973Z,2.83
2023-05-19T11:31:11.434Z,4.97
2023-05-19T11:33:41.303Z,4.18
2023-05-19T11:36:08.649Z,3.83
2023-05-19T11:39:02.358Z,4.20
2023-05-19T11:41:29.187Z,5.57
2023-05-19T11:43:55.968Z,3.63
2023-05-19T11:46:48.559Z,3.78
2023-05-19T11:49:15.838Z,3.00
2023-05-19T11:51:46.300Z,3.85
2023-05-19T11:54:38.311Z,3.35
2023-05-19T11:57:08.789Z,3.70
2023-05-19T12:02:29.370Z,3.72
2023-05-19T12:04:56.200Z,3.65
2023-05-19T12:07:24.459Z,4.60
2023-05-19T12:09:53.414Z,3.20
2023-05-19T12:12:22.617Z,4.35
2023-05-19T12:14:51.483Z,4.25
2023-05-19T12:17:20.295Z,3.15
2023-05-19T12:19:49.437Z,2.65
2023-05-19T12:22:21.428Z,2.90
2023-05-19T12:24:49.399Z,3.55
2023-05-19T12:27:21.486Z,3.05
2023-05-19T12:29:51.727Z,4.03
2023-05-19T12:32:19.163Z,3.90
2023-05-19T12:34:46.571Z,6.38
2023-05-19T12:37:13.910Z,4.78
2023-05-19T12:39:42.666Z,2.78
2023-05-19T12:42:11.287Z,3.00
2023-05-19T12:44:38.960Z,3.30
2023-05-19T12:47:06.803Z,2.92
2023-05-19T12:49:34.242Z,5.40
2023-05-19T12:52:05.187Z,2.55
2023-05-19T12:54:34.150Z,3.90
2023-05-19T12:57:01.752Z,3.47
2023-05-19T12:59:38.417Z,3.30
2023-05-19T13:02:06.608Z,3.55
2023-05-19T13:04:33.526Z,2.83
2023-05-19T13:07:00.376Z,4.38
2023-05-19T13:09:27.114Z,5.07
2023-05-19T13:11:54.205Z,3.15
2023-05-19T13:14:21.038Z,3.25
2023-05-19T13:16:47.956Z,2.45
2023-05-19T13:19:25.055Z,4.38
2023-05-19T13:21:52.762Z,2.42
2023-05-19T13:24:19.580Z,2.67
2023-05-19T13:26:46.399Z,3.05
2023-05-19T13:29:13.232Z,3.72
2023-05-19T13:31:40.670Z,2.58
2023-05-19T13:34:07.689Z,2.63
2023-05-19T13:36:34.448Z,2.53
2023-05-19T13:39:01.757Z,3.15
2023-05-19T13:41:28.520Z,2.55
2023-05-19T13:43:59.296Z,1.90
2023-05-19T13:46:33.114Z,2.95
2023-05-19T13:49:10.710Z,2.58
2023-05-19T13:51:37.526Z,2.70
2023-05-19T13:54:05.297Z,2.75
2023-05-19T13:56:32.202Z,2.78
2023-05-19T13:58:59.407Z,2.75
2023-05-19T14:01:26.212Z,2.45
2023-05-19T14:03:53.332Z,2.97
2023-05-19T14:06:20.302Z,6.18
2023-05-19T14:08:47.197Z,2.42
2023-05-19T14:11:20.669Z,4.50
2023-05-19T14:13:52.554Z,2.85
2023-05-19T14:16:19.957Z,2.47
2023-05-19T14:18:47.270Z,2.90
2023-05-19T14:21:14.315Z,2.97
2023-05-19T14:23:41.343Z,2.78
2023-05-19T14:26:09.338Z,3.75
2023-05-19T14:28:36.720Z,2.67
2023-05-19T14:31:04.348Z,5.20
2023-05-19T14:33:38.115Z,4.05
2023-05-19T14:36:07.958Z,3.65
2023-05-19T14:38:35.221Z,3.08
2023-05-19T14:41:02.329Z,2.90
2023-05-19T14:43:29.226Z,3.40
2023-05-19T14:45:57.149Z,2.47
2023-05-19T14:48:24.126Z,2.67
2023-05-19T14:50:52.820Z,2.40
2023-05-19T14:53:19.624Z,2.60
2023-05-19T14:55:49.793Z,2.58
2023-05-19T14:58:27.434Z,3.58
2023-05-19T15:00:58.103Z,4.28
2023-05-19T15:03:25.122Z,4.50
2023-05-19T15:05:52.115Z,3.67
2023-05-19T15:08:19.073Z,3.63
2023-05-19T15:10:49.026Z,5.57
2023-05-19T15:13:16.783Z,5.03
2023-05-19T15:15:43.653Z,3.45
2023-05-19T15:18:10.446Z,4.75
2023-05-19T15:20:38.316Z,3.92
2023-05-19T15:23:05.133Z,3.65
2023-05-19T15:25:31.999Z,4.60
2023-05-19T15:27:58.837Z,5.05
2023-05-19T15:30:25.653Z,4.32
2023-05-19T15:32:52.423Z,3.78
2023-05-19T15:35:20.258Z,3.47
2023-05-19T15:37:47.018Z,5.35
2023-05-19T15:40:14.091Z,6.45
2023-05-19T15:42:40.931Z,3.40
2023-05-19T15:45:10.095Z,7.53
2023-05-19T15:47:37.017Z,4.40
2023-05-19T15:50:03.994Z,4.55
2023-05-19T15:52:30.979Z,4.40
2023-05-19T15:54:59.715Z,5.38
2023-05-19T15:57:26.587Z,4.97
2023-05-19T15:59:53.512Z,5.07
2023-05-19T16:02:21.815Z,5.20
2023-05-19T16:05:15.788Z,5.25
2023-05-19T16:07:43.769Z,5.35
2023-05-19T16:10:10.722Z,5.45
2023-05-19T16:12:37.629Z,5.40
2023-05-19T16:15:05.123Z,4.80
2023-05-19T16:17:31.957Z,5.03
2023-05-19T16:19:59.395Z,6.28
2023-05-19T16:22:26.784Z,5.38
2023-05-19T16:24:53.518Z,5.32
2023-05-19T16:27:20.964Z,4.28
2023-05-19T16:29:48.764Z,5.88
2023-05-19T16:32:15.764Z,5.07
2023-05-19T16:34:43.720Z,6.03
2023-05-19T16:37:10.716Z,4.70
2023-05-19T16:42:29.799Z,4.70
2023-05-19T16:44:56.588Z,4.60
2023-05-19T16:47:27.366Z,5.35
2023-05-19T16:49:55.687Z,5.00
2023-05-19T16:52:24.354Z,4.65
2023-05-19T16:54:51.776Z,4.65
2023-05-19T16:57:20.678Z,6.32
2023-05-19T16:59:50.791Z,4.07
2023-05-19T17:02:17.676Z,5.75
2023-05-19T17:07:35.876Z,4.38
2023-05-19T17:10:04.054Z,3.80
2023-05-19T17:12:30.975Z,4.25
2023-05-19T17:14:57.841Z,3.67
2023-05-19T17:17:24.671Z,3.22
2023-05-19T17:19:51.648Z,4.88
2023-05-19T17:22:18.783Z,3.88
2023-05-19T17:24:46.315Z,4.18
2023-05-19T17:27:14.819Z,3.75
2023-05-19T17:29:41.673Z,4.22
2023-05-19T17:32:09.692Z,3.70
2023-05-19T17:34:37.670Z,3.40
2023-05-19T17:37:05.322Z,3.28
2023-05-19T17:39:32.156Z,4.28
2023-05-19T17:41:59.369Z,3.67
2023-05-19T17:44:26.150Z,3.63
2023-05-19T17:46:53.078Z,3.72
2023-05-19T17:49:22.332Z,3.70
2023-05-19T17:51:49.419Z,3.20
2023-05-19T17:54:41.528Z,4.20
2023-05-19T17:57:12.930Z,3.87
2023-05-19T17:59:42.199Z,4.13
2023-05-19T18:02:09.600Z,3.55
2023-05-19T18:04:36.675Z,3.80
2023-05-19T18:07:08.172Z,3.38
2023-05-19T18:09:37.786Z,4.63
2023-05-19T18:12:05.737Z,3.63
2023-05-19T18:14:32.518Z,2.78
2023-05-19T18:17:00.490Z,4.15
2023-05-19T18:19:28.156Z,3.90
2023-05-19T18:21:55.053Z,3.80
2023-05-19T18:24:22.521Z,4.00
2023-05-19T18:26:49.341Z,5.28
2023-05-19T18:29:16.712Z,3.08
2023-05-19T18:31:44.317Z,4.00
2023-05-19T18:34:11.696Z,4.20
2023-05-19T18:36:38.553Z,3.58
2023-05-19T18:39:06.315Z,3.72
2023-05-19T18:41:35.637Z,3.97
2023-05-19T18:44:03.289Z,3.53
2023-05-19T18:46:30.297Z,3.17
2023-05-19T18:48:57.173Z,4.60
2023-05-19T18:51:50.465Z,4.20
2023-05-19T18:54:20.713Z,3.20
2023-05-19T18:56:47.727Z,3.60
2023-05-19T18:59:14.574Z,4.35
2023-05-19T19:01:41.859Z,3.80
2023-05-19T19:04:09.454Z,3.70
2023-05-19T19:06:37.689Z,3.72
2023-05-19T19:09:04.697Z,3.85
2023-05-19T19:11:31.914Z,4.97
2023-05-19T19:13:58.818Z,3.28
2023-05-19T19:16:25.768Z,4.85
2023-05-19T19:18:53.356Z,4.78
2023-05-19T19:21:20.392Z,3.88
2023-05-19T19:23:47.235Z,3.33
2023-05-19T19:26:13.993Z,3.58
2023-05-19T19:28:42.051Z,3.60
2023-05-19T19:31:08.941Z,3.33
2023-05-19T19:33:35.803Z,5.25
2023-05-19T19:36:02.854Z,4.68
2023-05-19T19:38:29.682Z,3.17
2023-05-19T19:40:57.329Z,4.00
2023-05-19T19:43:24.706Z,4.22
2023-05-19T19:46:02.177Z,4.07
2023-05-19T19:48:57.021Z,6.23
2023-05-19T19:51:29.376Z,5.38
2023-05-19T19:53:56.162Z,5.13
2023-05-19T19:56:23.992Z,5.57
2023-05-19T19:58:51.103Z,5.93
2023-05-19T20:01:19.081Z,5.60
2023-05-19T20:03:46.335Z,4.65
2023-05-19T20:06:15.416Z,5.47
2023-05-19T20:09:07.442Z,5.50
2023-05-19T20:11:39.425Z,5.88
2023-05-19T20:14:07.006Z,7.20
2023-05-19T20:16:33.919Z,5.90
2023-05-19T20:19:00.847Z,6.82
2023-05-19T20:21:27.726Z,5.88
2023-05-19T20:23:55.406Z,6.65
2023-05-19T20:26:23.328Z,6.50
2023-05-19T20:28:50.330Z,7.63
2023-05-19T20:31:17.276Z,8.38
2023-05-19T20:33:44.140Z,8.43
2023-05-19T20:36:11.109Z,9.38
2023-05-19T20:38:37.858Z,6.97
2023-05-19T20:41:04.755Z,6.10
2023-05-19T20:43:32.395Z,6.47
2023-05-19T20:46:00.179Z,6.93
2023-05-19T20:48:27.210Z,6.65
2023-05-19T20:50:55.441Z,6.80
2023-05-19T20:53:23.907Z,6.88
2023-05-19T20:55:50.707Z,8.88
2023-05-19T20:58:18.383Z,7.10
2023-05-19T21:00:45.161Z,7.45
2023-05-19T21:03:12.126Z,9.03
2023-05-19T21:05:39.967Z,9.25
2023-05-19T21:08:08.762Z,8.43
2023-05-19T21:10:35.641Z,7.60
2023-05-19T21:13:03.018Z,6.90
2023-05-19T21:15:30.933Z,8.33
2023-05-19T21:17:59.781Z,7.53
2023-05-19T21:20:26.695Z,7.38
2023-05-19T21:22:53.726Z,8.35
2023-05-19T21:25:20.811Z,8.77
2023-05-19T21:27:47.597Z,8.97
2023-05-19T21:30:14.527Z,8.07
2023-05-19T21:32:42.503Z,7.78
2023-05-19T21:35:09.402Z,7.28
2023-05-19T21:37:37.807Z,6.90
2023-05-19T21:40:05.389Z,8.00
2023-05-19T21:42:32.217Z,6.72
2023-05-19T21:45:00.389Z,7.32
2023-05-19T21:47:27.329Z,7.13
2023-05-19T21:49:57.322Z,7.40
2023-05-19T21:52:27.770Z,9.07
2023-05-19T21:54:54.654Z,7.15
2023-05-19T21:57:22.381Z,7.55
2023-05-19T21:59:49.299Z,8.43
2023-05-19T22:02:45.463Z,7.18
2023-05-19T22:05:12.913Z,6.17
2023-05-19T22:07:39.835Z,6.38
2023-05-19T22:10:07.043Z,8.98
2023-05-19T22:12:33.858Z,6.78
2023-05-19T22:15:00.724Z,6.47
2023-05-19T22:17:29.475Z,5.80
2023-05-19T22:19:57.779Z,6.80
2023-05-19T22:22:50.433Z,6.85
2023-05-19T22:25:17.921Z,6.90
2023-05-19T22:27:44.873Z,7.55
2023-05-19T22:30:11.901Z,6.67
2023-05-19T22:32:38.794Z,6.97
2023-05-19T22:35:05.828Z,7.68
2023-05-19T22:37:32.953Z,9.05
2023-05-19T22:40:01.717Z,7.63
2023-05-19T22:42:28.542Z,7.43
2023-05-19T22:44:56.392Z,7.82
2023-05-19T22:47:23.946Z,8.10
2023-05-19T22:49:52.055Z,9.55
2023-05-19T22:52:19.778Z,6.82
2023-05-19T22:54:49.927Z,9.00
2023-05-19T22:57:18.455Z,8.57
2023-05-19T22:59:45.383Z,7.70
2023-05-19T23:02:37.444Z,7.32
2023-05-19T23:05:04.773Z,7.68
2023-05-19T23:07:33.751Z,9.03
2023-05-19T23:10:00.551Z,9.32
2023-05-19T23:12:27.869Z,7.65
2023-05-19T23:14:55.010Z,9.68
2023-05-19T23:17:21.852Z,8.00
2023-05-19T23:19:48.766Z,8.07
2023-05-19T23:22:16.455Z,7.63
2023-05-19T23:24:43.810Z,7.25
2023-05-19T23:27:11.474Z,6.82
2023-05-19T23:29:38.370Z,8.65
2023-05-19T23:32:05.833Z,7.90
2023-05-19T23:34:32.773Z,7.18
2023-05-19T23:36:59.657Z,7.70
2023-05-19T23:39:26.571Z,7.45
2023-05-19T23:41:54.002Z,8.52
2023-05-19T23:44:21.026Z,7.33
2023-05-19T23:46:47.952Z,8.98
2023-05-19T23:49:39.826Z,8.52
2023-05-19T23:52:06.939Z,7.43
2023-05-19T23:54:33.750Z,7.05
2023-05-19T23:57:03.406Z,6.77
2023-05-19T23:59:30.359Z,6.53
